Loughton, United Kingdom
Current Conditions -  °F | °C
As of 8:20 PM on Tuesday 21 Oct 2014 (Local Time) from EGLC Reporting Station
Scattered Clouds Scattered Clouds  
Wind Chill: 52°   Ceiling: Unl
Heat Index: 52°   Visibility: 6mi
Dew Point: 37°   Wind: 24mph
Humidity: 58%   Direction: 290°WNW
Pressure: 30"   Gusts: NA
Location:  51.65°N, 0.05°E
Report Text: EGLC 211920Z 29021KT 9999 SCT035 11/03 Q1016
Loading
Personal Weather Stations






























Interactive Weather Map
Tropical Storm Tracking
New forecast layout! Learn more

10-Day Weather Forecast

Advertisements
Track Severe Weather on mobile